aviador You're here:

PARY Decoded Metar

RUBY in AK, USA
Report Time2018-02-21 21:04:00
UTC Time2018-02-21 21:17:32
Flight Rules mvfr MVFR
Wind060° at 08 kt
W.Decomp.*RWY 03: 7.9 kt HW 1.4 kt RCW
W.Rank060° ranks 5
Current wind is above 060° avg. (6.9)
Visibility6437 m
Phenomena:Light Snow
Mist
Clouds:Overcast 019 Hf
Expected CloudBase > 400 ft AGL from Temp-Dew spread
Ceiling1,900 ft
Temp-7°C (ISA -21)
Dew Point-8°C (93% RH)
AAT-12.8°C
QNH1023 hPa
Density Alt-2,208 ft
Elevation653 ft
Report Wrong Elevation
Raw Report
PARY 212104Z AUTO 06008KT 4SM -SN BR OVC019 M07/M08 A3020=

Extra information for PARY:More info

Metar Taf Metar & Taf Last 4 Metars F.Rules Stats Wind Profile Meteogram Temp Stats Airport Information Weather charts Add Link Nearby VenuesMetar ALERT Operation Metar Decoded Social comments

AIRNAV info for PARY